sensor_id;sensor_type;location;lat;lon;timestamp;temperature;humidity
40323;DHT22;26030;51.164;17.100;2022-10-31T00:04:38;23.20;72.80
40323;DHT22;26030;51.164;17.100;2022-10-31T00:09:42;23.20;73.00
40323;DHT22;26030;51.164;17.100;2022-10-31T00:14:45;23.20;72.60
40323;DHT22;26030;51.164;17.100;2022-10-31T00:19:49;23.10;72.90
40323;DHT22;26030;51.164;17.100;2022-10-31T00:24:57;23.10;72.50
40323;DHT22;26030;51.164;17.100;2022-10-31T00:30:04;23.10;72.50
40323;DHT22;26030;51.164;17.100;2022-10-31T00:35:08;23.10;72.50
40323;DHT22;26030;51.164;17.100;2022-10-31T00:40:12;23.10;72.60
40323;DHT22;26030;51.164;17.100;2022-10-31T00:45:18;23.00;72.50
40323;DHT22;26030;51.164;17.100;2022-10-31T00:50:23;23.00;72.60
40323;DHT22;26030;51.164;17.100;2022-10-31T00:55:26;23.00;72.60
40323;DHT22;26030;51.164;17.100;2022-10-31T01:00:30;23.00;72.50
40323;DHT22;26030;51.164;17.100;2022-10-31T01:05:34;23.00;73.00
40323;DHT22;26030;51.164;17.100;2022-10-31T01:10:38;23.00;72.70
40323;DHT22;26030;51.164;17.100;2022-10-31T01:15:41;23.00;72.60
40323;DHT22;26030;51.164;17.100;2022-10-31T01:20:45;22.90;73.20
40323;DHT22;26030;51.164;17.100;2022-10-31T01:25:48;22.90;72.60
40323;DHT22;26030;51.164;17.100;2022-10-31T01:30:52;22.90;72.90
40323;DHT22;26030;51.164;17.100;2022-10-31T01:35:55;22.90;72.60
40323;DHT22;26030;51.164;17.100;2022-10-31T01:40:59;22.90;72.60
40323;DHT22;26030;51.164;17.100;2022-10-31T01:46:03;22.90;72.70
40323;DHT22;26030;51.164;17.100;2022-10-31T01:51:06;22.80;72.70
40323;DHT22;26030;51.164;17.100;2022-10-31T01:56:12;22.80;72.60
40323;DHT22;26030;51.164;17.100;2022-10-31T02:01:18;22.80;72.40
40323;DHT22;26030;51.164;17.100;2022-10-31T02:06:26;22.80;73.10
40323;DHT22;26030;51.164;17.100;2022-10-31T02:11:36;22.80;73.00
40323;DHT22;26030;51.164;17.100;2022-10-31T02:16:40;22.70;73.00
40323;DHT22;26030;51.164;17.100;2022-10-31T02:21:49;22.70;72.70
40323;DHT22;26030;51.164;17.100;2022-10-31T02:27:19;22.70;72.70
40323;DHT22;26030;51.164;17.100;2022-10-31T02:32:46;22.70;72.70
40323;DHT22;26030;51.164;17.100;2022-10-31T02:48:36;22.70;73.20
40323;DHT22;26030;51.164;17.100;2022-10-31T02:53:43;22.60;73.20
40323;DHT22;26030;51.164;17.100;2022-10-31T02:58:55;22.60;72.50
40323;DHT22;26030;51.164;17.100;2022-10-31T03:14:41;22.60;72.70
40323;DHT22;26030;51.164;17.100;2022-10-31T03:19:48;22.50;73.00
40323;DHT22;26030;51.164;17.100;2022-10-31T03:24:54;22.50;72.90
40323;DHT22;26030;51.164;17.100;2022-10-31T03:30:00;22.50;72.60
40323;DHT22;26030;51.164;17.100;2022-10-31T03:35:10;22.50;72.70
40323;DHT22;26030;51.164;17.100;2022-10-31T03:40:16;22.50;72.70
40323;DHT22;26030;51.164;17.100;2022-10-31T03:45:24;22.50;73.10
40323;DHT22;26030;51.164;17.100;2022-10-31T03:51:19;22.50;72.70
40323;DHT22;26030;51.164;17.100;2022-10-31T04:01:19;22.40;72.70
40323;DHT22;26030;51.164;17.100;2022-10-31T04:06:25;22.40;72.90
40323;DHT22;26030;51.164;17.100;2022-10-31T04:11:31;22.40;72.60
40323;DHT22;26030;51.164;17.100;2022-10-31T04:16:58;22.40;72.80
40323;DHT22;26030;51.164;17.100;2022-10-31T04:22:09;22.40;72.70
40323;DHT22;26030;51.164;17.100;2022-10-31T04:27:13;22.40;72.70
40323;DHT22;26030;51.164;17.100;2022-10-31T04:32:16;22.40;73.00
40323;DHT22;26030;51.164;17.100;2022-10-31T04:37:20;22.30;73.20
40323;DHT22;26030;51.164;17.100;2022-10-31T04:42:25;22.30;73.00
40323;DHT22;26030;51.164;17.100;2022-10-31T04:47:30;22.30;72.70
40323;DHT22;26030;51.164;17.100;2022-10-31T04:52:39;22.30;72.60
40323;DHT22;26030;51.164;17.100;2022-10-31T04:57:46;22.30;72.70
40323;DHT22;26030;51.164;17.100;2022-10-31T05:02:55;22.30;72.90
40323;DHT22;26030;51.164;17.100;2022-10-31T05:08:01;22.20;72.50
40323;DHT22;26030;51.164;17.100;2022-10-31T05:13:06;22.20;72.50
40323;DHT22;26030;51.164;17.100;2022-10-31T05:18:29;22.20;72.90
40323;DHT22;26030;51.164;17.100;2022-10-31T05:24:02;22.20;72.60
40323;DHT22;26030;51.164;17.100;2022-10-31T05:29:08;22.20;72.50
40323;DHT22;26030;51.164;17.100;2022-10-31T05:34:12;22.20;72.50
40323;DHT22;26030;51.164;17.100;2022-10-31T05:39:18;22.20;72.80
40323;DHT22;26030;51.164;17.100;2022-10-31T05:44:24;22.20;72.50
40323;DHT22;26030;51.164;17.100;2022-10-31T05:49:46;22.10;72.50
40323;DHT22;26030;51.164;17.100;2022-10-31T05:55:08;22.10;72.40
40323;DHT22;26030;51.164;17.100;2022-10-31T06:00:14;22.10;72.50
40323;DHT22;26030;51.164;17.100;2022-10-31T06:05:23;22.10;72.60
40323;DHT22;26030;51.164;17.100;2022-10-31T06:10:27;22.00;72.60
40323;DHT22;26030;51.164;17.100;2022-10-31T06:15:32;22.10;72.60
40323;DHT22;26030;51.164;17.100;2022-10-31T06:20:35;22.00;72.60
40323;DHT22;26030;51.164;17.100;2022-10-31T06:25:40;22.00;72.60
40323;DHT22;26030;51.164;17.100;2022-10-31T06:30:45;22.00;72.50
40323;DHT22;26030;51.164;17.100;2022-10-31T06:35:48;22.00;72.50
40323;DHT22;26030;51.164;17.100;2022-10-31T06:40:55;22.00;72.50
40323;DHT22;26030;51.164;17.100;2022-10-31T06:46:02;22.00;72.60
40323;DHT22;26030;51.164;17.100;2022-10-31T06:51:11;22.00;72.40
40323;DHT22;26030;51.164;17.100;2022-10-31T06:56:14;22.00;71.90
40323;DHT22;26030;51.164;17.100;2022-10-31T07:01:23;22.00;72.40
40323;DHT22;26030;51.164;17.100;2022-10-31T07:06:27;22.10;71.90
40323;DHT22;26030;51.164;17.100;2022-10-31T07:11:31;22.00;71.90
40323;DHT22;26030;51.164;17.100;2022-10-31T07:16:39;22.10;71.40
40323;DHT22;26030;51.164;17.100;2022-10-31T07:21:49;22.00;71.40
40323;DHT22;26030;51.164;17.100;2022-10-31T07:26:53;22.00;71.60
40323;DHT22;26030;51.164;17.100;2022-10-31T07:31:56;22.10;71.60
40323;DHT22;26030;51.164;17.100;2022-10-31T07:37:02;22.10;71.90
40323;DHT22;26030;51.164;17.100;2022-10-31T07:42:07;22.10;71.70
40323;DHT22;26030;51.164;17.100;2022-10-31T07:47:10;22.20;71.70
40323;DHT22;26030;51.164;17.100;2022-10-31T07:52:33;22.30;71.10
40323;DHT22;26030;51.164;17.100;2022-10-31T07:58:05;22.20;70.20
40323;DHT22;26030;51.164;17.100;2022-10-31T08:03:12;22.30;69.50
40323;DHT22;26030;51.164;17.100;2022-10-31T08:08:35;22.20;68.50
40323;DHT22;26030;51.164;17.100;2022-10-31T08:13:41;22.30;67.90
40323;DHT22;26030;51.164;17.100;2022-10-31T08:18:48;22.30;67.70
40323;DHT22;26030;51.164;17.100;2022-10-31T08:23:52;22.20;67.90
40323;DHT22;26030;51.164;17.100;2022-10-31T08:29:00;22.30;68.00
40323;DHT22;26030;51.164;17.100;2022-10-31T08:34:08;22.40;67.80
40323;DHT22;26030;51.164;17.100;2022-10-31T08:39:45;22.40;68.00
40323;DHT22;26030;51.164;17.100;2022-10-31T08:44:53;22.40;68.50
40323;DHT22;26030;51.164;17.100;2022-10-31T08:49:57;22.50;68.50
40323;DHT22;26030;51.164;17.100;2022-10-31T08:55:01;22.40;68.20
40323;DHT22;26030;51.164;17.100;2022-10-31T09:00:26;22.40;68.30
40323;DHT22;26030;51.164;17.100;2022-10-31T09:05:39;22.60;68.80
40323;DHT22;26030;51.164;17.100;2022-10-31T09:10:44;22.60;68.00
40323;DHT22;26030;51.164;17.100;2022-10-31T09:15:55;22.60;67.60
40323;DHT22;26030;51.164;17.100;2022-10-31T09:21:06;22.60;67.20
40323;DHT22;26030;51.164;17.100;2022-10-31T09:26:13;22.60;66.80
40323;DHT22;26030;51.164;17.100;2022-10-31T09:31:43;22.70;66.50
40323;DHT22;26030;51.164;17.100;2022-10-31T09:37:06;22.80;66.20
40323;DHT22;26030;51.164;17.100;2022-10-31T09:47:48;23.00;66.00
40323;DHT22;26030;51.164;17.100;2022-10-31T09:53:10;23.10;65.90
40323;DHT22;26030;51.164;17.100;2022-10-31T09:58:25;23.10;65.80
40323;DHT22;26030;51.164;17.100;2022-10-31T10:03:39;23.20;65.90
40323;DHT22;26030;51.164;17.100;2022-10-31T10:09:09;23.20;66.10
40323;DHT22;26030;51.164;17.100;2022-10-31T10:14:44;23.30;66.00
40323;DHT22;26030;51.164;17.100;2022-10-31T10:25:40;23.50;65.80
40323;DHT22;26030;51.164;17.100;2022-10-31T10:35:59;23.60;65.60
40323;DHT22;26030;51.164;17.100;2022-10-31T10:41:11;23.70;65.50
40323;DHT22;26030;51.164;17.100;2022-10-31T10:58:09;23.90;65.20
40323;DHT22;26030;51.164;17.100;2022-10-31T11:03:14;24.00;65.00
40323;DHT22;26030;51.164;17.100;2022-10-31T11:08:26;24.10;64.90
40323;DHT22;26030;51.164;17.100;2022-10-31T11:13:39;24.10;64.80
40323;DHT22;26030;51.164;17.100;2022-10-31T11:18:46;24.10;64.70
40323;DHT22;26030;51.164;17.100;2022-10-31T11:23:50;24.20;64.60
40323;DHT22;26030;51.164;17.100;2022-10-31T11:28:57;24.30;64.50
40323;DHT22;26030;51.164;17.100;2022-10-31T11:34:11;24.30;64.40
40323;DHT22;26030;51.164;17.100;2022-10-31T11:39:20;24.30;64.30
40323;DHT22;26030;51.164;17.100;2022-10-31T11:44:27;24.40;64.70
40323;DHT22;26030;51.164;17.100;2022-10-31T11:49:36;24.40;63.90
40323;DHT22;26030;51.164;17.100;2022-10-31T11:55:29;24.40;64.30
40323;DHT22;26030;51.164;17.100;2022-10-31T12:00:25;24.40;63.90
40323;DHT22;26030;51.164;17.100;2022-10-31T12:05:35;24.50;64.10
40323;DHT22;26030;51.164;17.100;2022-10-31T12:10:54;24.50;64.10
40323;DHT22;26030;51.164;17.100;2022-10-31T12:16:13;24.50;64.60
40323;DHT22;26030;51.164;17.100;2022-10-31T12:21:38;24.60;63.90
40323;DHT22;26030;51.164;17.100;2022-10-31T12:26:54;24.70;64.30
40323;DHT22;26030;51.164;17.100;2022-10-31T12:59:14;24.70;64.00
40323;DHT22;26030;51.164;17.100;2022-10-31T13:04:34;24.70;63.90
40323;DHT22;26030;51.164;17.100;2022-10-31T13:09:42;24.70;64.00
40323;DHT22;26030;51.164;17.100;2022-10-31T13:14:55;24.70;64.30
40323;DHT22;26030;51.164;17.100;2022-10-31T13:25:27;24.70;64.10
40323;DHT22;26030;51.164;17.100;2022-10-31T13:30:39;24.70;64.50
40323;DHT22;26030;51.164;17.100;2022-10-31T13:35:54;24.70;64.10
40323;DHT22;26030;51.164;17.100;2022-10-31T13:46:41;24.70;64.00
40323;DHT22;26030;51.164;17.100;2022-10-31T13:52:04;24.70;63.90
40323;DHT22;26030;51.164;17.100;2022-10-31T13:57:43;24.60;63.70
40323;DHT22;26030;51.164;17.100;2022-10-31T14:02:59;24.50;64.50
40323;DHT22;26030;51.164;17.100;2022-10-31T14:08:17;24.50;65.10
40323;DHT22;26030;51.164;17.100;2022-10-31T14:13:38;24.40;65.40
40323;DHT22;26030;51.164;17.100;2022-10-31T14:19:00;24.40;65.90
40323;DHT22;26030;51.164;17.100;2022-10-31T14:29:37;24.30;66.40
40323;DHT22;26030;51.164;17.100;2022-10-31T14:34:57;24.30;66.90
40323;DHT22;26030;51.164;17.100;2022-10-31T14:40:19;24.30;67.80
40323;DHT22;26030;51.164;17.100;2022-10-31T14:52:14;24.30;69.00
40323;DHT22;26030;51.164;17.100;2022-10-31T14:57:32;24.30;68.70
40323;DHT22;26030;51.164;17.100;2022-10-31T15:08:40;24.20;67.90
40323;DHT22;26030;51.164;17.100;2022-10-31T15:13:50;24.10;68.10
40323;DHT22;26030;51.164;17.100;2022-10-31T15:19:05;24.10;68.20
40323;DHT22;26030;51.164;17.100;2022-10-31T15:24:16;24.00;68.30
40323;DHT22;26030;51.164;17.100;2022-10-31T15:29:23;23.90;68.70
40323;DHT22;26030;51.164;17.100;2022-10-31T15:34:40;23.90;68.40
40323;DHT22;26030;51.164;17.100;2022-10-31T15:40:06;23.90;68.80
40323;DHT22;26030;51.164;17.100;2022-10-31T15:45:34;23.90;68.40
40323;DHT22;26030;51.164;17.100;2022-10-31T15:50:52;23.80;68.40
40323;DHT22;26030;51.164;17.100;2022-10-31T15:56:03;23.80;67.80
40323;DHT22;26030;51.164;17.100;2022-10-31T16:01:32;23.80;68.40
40323;DHT22;26030;51.164;17.100;2022-10-31T16:07:13;23.70;68.00
40323;DHT22;26030;51.164;17.100;2022-10-31T16:12:42;23.70;68.20
40323;DHT22;26030;51.164;17.100;2022-10-31T16:17:58;23.60;68.00
40323;DHT22;26030;51.164;17.100;2022-10-31T16:23:03;23.60;68.00
40323;DHT22;26030;51.164;17.100;2022-10-31T16:28:16;23.60;68.20
40323;DHT22;26030;51.164;17.100;2022-10-31T16:33:41;23.60;67.70
40323;DHT22;26030;51.164;17.100;2022-10-31T16:38:46;23.60;68.10
40323;DHT22;26030;51.164;17.100;2022-10-31T16:43:49;23.60;68.20
40323;DHT22;26030;51.164;17.100;2022-10-31T16:48:54;23.60;68.10
40323;DHT22;26030;51.164;17.100;2022-10-31T16:54:03;23.60;67.80
40323;DHT22;26030;51.164;17.100;2022-10-31T16:59:10;23.60;67.80
40323;DHT22;26030;51.164;17.100;2022-10-31T17:04:30;23.60;67.60
40323;DHT22;26030;51.164;17.100;2022-10-31T17:09:34;23.50;68.00
40323;DHT22;26030;51.164;17.100;2022-10-31T17:14:40;23.60;68.20
40323;DHT22;26030;51.164;17.100;2022-10-31T17:19:45;23.60;68.30
40323;DHT22;26030;51.164;17.100;2022-10-31T17:24:49;23.60;68.30
40323;DHT22;26030;51.164;17.100;2022-10-31T17:29:56;23.60;68.40
40323;DHT22;26030;51.164;17.100;2022-10-31T17:35:02;23.50;68.00
40323;DHT22;26030;51.164;17.100;2022-10-31T17:40:09;23.50;68.00
40323;DHT22;26030;51.164;17.100;2022-10-31T17:45:22;23.40;68.00
40323;DHT22;26030;51.164;17.100;2022-10-31T17:50:34;23.40;67.80
40323;DHT22;26030;51.164;17.100;2022-10-31T17:56:05;23.50;68.00
40323;DHT22;26030;51.164;17.100;2022-10-31T18:01:14;23.40;68.00
40323;DHT22;26030;51.164;17.100;2022-10-31T18:06:28;23.50;68.20
40323;DHT22;26030;51.164;17.100;2022-10-31T18:11:32;23.40;67.60
40323;DHT22;26030;51.164;17.100;2022-10-31T18:16:36;23.40;67.60
40323;DHT22;26030;51.164;17.100;2022-10-31T18:21:51;23.40;69.30
40323;DHT22;26030;51.164;17.100;2022-10-31T18:26:55;23.40;67.20
40323;DHT22;26030;51.164;17.100;2022-10-31T18:32:16;23.40;67.10
40323;DHT22;26030;51.164;17.100;2022-10-31T18:37:21;23.30;67.10
40323;DHT22;26030;51.164;17.100;2022-10-31T18:42:28;23.30;67.00
40323;DHT22;26030;51.164;17.100;2022-10-31T18:47:32;23.30;67.10
40323;DHT22;26030;51.164;17.100;2022-10-31T18:52:37;23.20;66.80
40323;DHT22;26030;51.164;17.100;2022-10-31T18:57:48;23.20;66.90
40323;DHT22;26030;51.164;17.100;2022-10-31T19:02:53;23.10;66.80
40323;DHT22;26030;51.164;17.100;2022-10-31T19:07:59;23.10;66.60
40323;DHT22;26030;51.164;17.100;2022-10-31T19:13:03;23.10;66.40
40323;DHT22;26030;51.164;17.100;2022-10-31T19:18:16;23.00;66.30
40323;DHT22;26030;51.164;17.100;2022-10-31T19:23:20;23.10;66.70
40323;DHT22;26030;51.164;17.100;2022-10-31T19:28:24;23.00;66.40
40323;DHT22;26030;51.164;17.100;2022-10-31T19:33:38;23.00;66.50
40323;DHT22;26030;51.164;17.100;2022-10-31T19:38:43;23.00;66.60
40323;DHT22;26030;51.164;17.100;2022-10-31T19:43:49;23.10;66.60
40323;DHT22;26030;51.164;17.100;2022-10-31T19:48:54;23.10;66.00
40323;DHT22;26030;51.164;17.100;2022-10-31T19:54:09;23.10;66.50
40323;DHT22;26030;51.164;17.100;2022-10-31T19:59:31;23.10;66.40
40323;DHT22;26030;51.164;17.100;2022-10-31T20:04:46;23.10;66.30
40323;DHT22;26030;51.164;17.100;2022-10-31T20:10:03;23.10;66.50
40323;DHT22;26030;51.164;17.100;2022-10-31T20:15:35;23.10;66.90
40323;DHT22;26030;51.164;17.100;2022-10-31T20:20:53;23.00;66.10
40323;DHT22;26030;51.164;17.100;2022-10-31T20:26:15;23.00;66.10
40323;DHT22;26030;51.164;17.100;2022-10-31T20:31:26;23.00;65.90
40323;DHT22;26030;51.164;17.100;2022-10-31T20:36:36;23.00;65.60
40323;DHT22;26030;51.164;17.100;2022-10-31T20:41:53;23.00;66.00
40323;DHT22;26030;51.164;17.100;2022-10-31T20:47:02;23.00;66.10
40323;DHT22;26030;51.164;17.100;2022-10-31T20:52:13;23.00;66.10
40323;DHT22;26030;51.164;17.100;2022-10-31T20:57:31;23.00;67.20
40323;DHT22;26030;51.164;17.100;2022-10-31T21:02:56;23.00;66.80
40323;DHT22;26030;51.164;17.100;2022-10-31T21:08:29;22.90;66.70
40323;DHT22;26030;51.164;17.100;2022-10-31T21:14:11;22.90;66.70
40323;DHT22;26030;51.164;17.100;2022-10-31T21:19:25;22.80;66.90
40323;DHT22;26030;51.164;17.100;2022-10-31T21:24:50;22.80;67.00
40323;DHT22;26030;51.164;17.100;2022-10-31T21:30:17;22.80;67.20
40323;DHT22;26030;51.164;17.100;2022-10-31T21:35:35;22.80;67.20
40323;DHT22;26030;51.164;17.100;2022-10-31T21:41:01;22.70;67.40
40323;DHT22;26030;51.164;17.100;2022-10-31T21:46:10;22.70;67.50
40323;DHT22;26030;51.164;17.100;2022-10-31T21:51:37;22.70;68.00
40323;DHT22;26030;51.164;17.100;2022-10-31T21:56:42;22.80;68.10
40323;DHT22;26030;51.164;17.100;2022-10-31T22:01:53;22.70;67.80
40323;DHT22;26030;51.164;17.100;2022-10-31T22:07:02;22.80;68.00
40323;DHT22;26030;51.164;17.100;2022-10-31T22:12:13;22.80;68.30
40323;DHT22;26030;51.164;17.100;2022-10-31T22:17:18;22.80;68.30
40323;DHT22;26030;51.164;17.100;2022-10-31T22:22:22;22.80;68.60
40323;DHT22;26030;51.164;17.100;2022-10-31T22:27:29;22.80;68.60
40323;DHT22;26030;51.164;17.100;2022-10-31T22:32:33;22.70;68.70
40323;DHT22;26030;51.164;17.100;2022-10-31T22:37:38;22.70;69.20
40323;DHT22;26030;51.164;17.100;2022-10-31T22:42:42;22.70;68.50
40323;DHT22;26030;51.164;17.100;2022-10-31T22:47:46;22.70;69.30
40323;DHT22;26030;51.164;17.100;2022-10-31T22:52:54;22.70;69.00
40323;DHT22;26030;51.164;17.100;2022-10-31T22:58:04;22.60;69.40
40323;DHT22;26030;51.164;17.100;2022-10-31T23:03:08;22.70;69.70
40323;DHT22;26030;51.164;17.100;2022-10-31T23:08:13;22.70;70.30
40323;DHT22;26030;51.164;17.100;2022-10-31T23:13:27;22.70;70.00
40323;DHT22;26030;51.164;17.100;2022-10-31T23:18:54;22.70;70.20
40323;DHT22;26030;51.164;17.100;2022-10-31T23:23:58;22.70;70.50
40323;DHT22;26030;51.164;17.100;2022-10-31T23:29:04;22.70;70.50
40323;DHT22;26030;51.164;17.100;2022-10-31T23:34:07;22.70;70.10
40323;DHT22;26030;51.164;17.100;2022-10-31T23:39:15;22.70;70.20
40323;DHT22;26030;51.164;17.100;2022-10-31T23:44:28;22.70;70.30
40323;DHT22;26030;51.164;17.100;2022-10-31T23:49:32;22.60;70.50
40323;DHT22;26030;51.164;17.100;2022-10-31T23:54:36;22.60;70.80
40323;DHT22;26030;51.164;17.100;2022-10-31T23:59:44;22.60;70.60
